Time;durP1;ratioP1;P1;durP2;ratioP2;P2;SDS_P1;SDS_P2;PMS_P1;PMS_P2;Temp;Humidity;BMP_temperature;BMP_pressure;BME280_temperature;BME280_humidity;BME280_pressure;Samples;Min_cycle;Max_cycle;Signal;HPM_P1;HPM_P2
2024/01/24 00:02:05;;;;;;;166.65;6.55;;;;;;;20.21;48.38;99673.19;7296836;19;131353;-37
2024/01/24 00:04:31;;;;;;;176.15;7.13;;;;;;;20.21;48.31;99660.16;7296825;19;129665;-41
2024/01/24 00:06:56;;;;;;;190.30;7.75;;;;;;;20.04;48.81;99631.97;7293078;19;130119;-39
2024/01/24 00:09:21;;;;;;;229.10;9.93;;;;;;;20.19;48.40;99656.81;7296770;19;132423;-35
2024/01/24 00:11:47;;;;;;;144.40;5.97;;;;;;;20.26;48.15;99655.38;7297170;19;130406;-37
2024/01/24 00:14:12;;;;;;;186.60;7.60;;;;;;;20.22;47.99;99646.97;7297144;19;129077;-36
2024/01/24 00:16:39;;;;;;;271.38;11.75;;;;;;;20.22;48.26;99636.53;7289963;19;130508;-40
2024/01/24 00:19:04;;;;;;;281.10;11.07;;;;;;;20.23;48.41;99622.50;7296197;19;130918;-38
2024/01/24 00:21:29;;;;;;;203.30;8.68;;;;;;;20.10;48.24;99603.59;7293306;19;131571;-38
2024/01/24 00:23:55;;;;;;;197.15;7.80;;;;;;;20.22;48.41;99614.81;7297731;19;131455;-38
2024/01/24 00:26:20;;;;;;;259.85;10.52;;;;;;;20.23;48.30;99606.03;7291445;19;130260;-40
2024/01/24 00:28:45;;;;;;;151.13;6.05;;;;;;;20.21;48.69;99594.88;7292621;19;131186;-39
2024/01/24 00:31:11;;;;;;;184.40;7.20;;;;;;;20.18;48.14;99590.72;7291935;19;130319;-40
2024/01/24 00:33:36;;;;;;;157.32;6.35;;;;;;;20.20;48.50;99582.78;7295555;19;129269;-36
2024/01/24 00:36:01;;;;;;;252.88;9.77;;;;;;;20.08;48.38;99566.34;7290895;19;131040;-35
2024/01/24 00:38:27;;;;;;;220.43;8.32;;;;;;;20.20;49.29;99581.00;7293201;19;131728;-39
2024/01/24 00:40:52;;;;;;;190.70;7.53;;;;;;;19.89;50.34;99540.16;7293401;19;131262;-40
2024/01/24 00:43:17;;;;;;;163.13;6.60;;;;;;;19.92;50.31;99575.59;7295281;19;130185;-36
2024/01/24 00:45:43;;;;;;;157.07;6.10;;;;;;;19.85;50.57;99566.66;7291271;19;130145;-35
2024/01/24 00:48:08;;;;;;;163.20;6.32;;;;;;;19.80;50.79;99561.81;7294807;19;129758;-36
2024/01/24 00:50:34;;;;;;;258.25;10.38;;;;;;;19.79;51.17;99559.31;7291797;19;131094;-37
2024/01/24 00:53:04;;;;;;;187.80;7.67;;;;;;;19.76;51.61;99528.28;7293929;19;129464;-37
2024/01/24 00:55:30;;;;;;;337.33;14.05;;;;;;;19.75;51.66;99522.22;7287300;19;130061;-40
2024/01/24 00:57:56;;;;;;;228.98;9.85;;;;;;;19.61;51.20;99485.25;7293683;19;129936;-35
2024/01/24 01:00:22;;;;;;;164.27;6.73;;;;;;;19.75;52.04;99498.75;7291931;19;130593;-36
2024/01/24 01:02:47;;;;;;;105.18;4.55;;;;;;;19.65;51.83;99471.00;7294093;19;129460;-40
2024/01/24 01:05:13;;;;;;;321.75;12.77;;;;;;;19.69;51.73;99468.00;7289121;19;129759;-38
2024/01/24 01:07:41;;;;;;;278.63;11.10;;;;;;;19.69;52.36;99474.97;7285724;19;130651;-39
2024/01/24 01:10:10;;;;;;;182.88;7.18;;;;;;;19.70;52.14;99466.22;7294762;19;132333;-37
2024/01/24 01:12:36;;;;;;;271.00;11.00;;;;;;;19.66;52.71;99460.44;7289974;19;131322;-39
2024/01/24 01:15:01;;;;;;;265.23;10.13;;;;;;;19.64;52.03;99451.91;7292585;19;129702;-40
2024/01/24 01:17:26;;;;;;;264.65;10.75;;;;;;;19.73;51.66;99458.97;7292262;19;130291;-38
2024/01/24 01:19:52;;;;;;;180.95;6.97;;;;;;;19.77;51.77;99447.28;7292907;19;130447;-37
2024/01/24 01:22:18;;;;;;;177.20;7.28;;;;;;;19.78;52.30;99445.53;7286847;19;129911;-38
2024/01/24 01:24:43;;;;;;;230.23;9.05;;;;;;;19.83;51.95;99443.34;7294042;19;129480;-38
2024/01/24 01:27:09;;;;;;;269.00;11.13;;;;;;;19.80;52.36;99439.19;7290579;19;132463;-36
2024/01/24 01:29:34;;;;;;;200.18;8.27;;;;;;;19.73;51.69;99408.56;7292768;19;130362;-36
2024/01/24 01:32:00;;;;;;;177.93;6.97;;;;;;;19.88;51.92;99415.91;7293889;19;129593;-37
2024/01/24 01:34:25;;;;;;;225.90;8.80;;;;;;;19.89;51.33;99420.16;7290989;19;130216;-37
2024/01/24 01:36:51;;;;;;;176.70;7.13;;;;;;;19.90;51.13;99406.16;7291466;19;130348;-41
2024/01/24 01:39:16;;;;;;;97.00;3.97;;;;;;;19.93;51.07;99405.88;7293091;19;130413;-42
2024/01/24 01:41:45;;;;;;;296.08;11.63;;;;;;;19.92;51.56;99388.59;7290173;19;131320;-36
2024/01/24 01:44:11;;;;;;;202.30;7.93;;;;;;;19.96;51.23;99399.56;7293487;19;129421;-40
2024/01/24 01:46:37;;;;;;;222.98;9.18;;;;;;;19.94;51.10;99376.22;7290773;19;130190;-35
2024/01/24 01:49:03;;;;;;;191.80;7.60;;;;;;;19.96;51.20;99386.53;7291336;19;130381;-39
2024/01/24 01:51:30;;;;;;;155.32;6.15;;;;;;;19.99;51.38;99378.44;7293080;19;132214;-41
2024/01/24 01:53:55;;;;;;;223.70;8.63;;;;;;;20.01;50.84;99369.53;7290041;19;131856;-35
2024/01/24 01:56:22;;;;;;;180.57;7.30;;;;;;;19.99;51.34;99363.63;7292554;19;129561;-39
2024/01/24 01:58:49;;;;;;;179.20;7.20;;;;;;;19.97;50.48;99360.31;7285922;19;130448;-38
2024/01/24 02:01:15;;;;;;;;;;;;;;;19.87;51.53;99328.16;7290645;19;130947;-39
2024/01/24 02:03:41;;;;;;;214.32;8.32;;;;;;;20.00;51.47;99338.34;7291788;19;131152;-38
2024/01/24 02:06:07;;;;;;;196.93;7.57;;;;;;;20.03;50.40;99327.63;7291369;19;130996;-40
2024/01/24 02:08:34;;;;;;;129.48;5.05;;;;;;;20.03;50.15;99315.41;7291339;19;131884;-38
2024/01/24 02:10:59;;;;;;;192.90;7.57;;;;;;;20.05;49.94;99323.09;7292022;19;129127;-40
2024/01/24 02:13:30;;;;;;;218.25;8.43;;;;;;;20.08;50.45;99313.19;7293479;19;131426;-38
2024/01/24 02:15:55;;;;;;;174.13;6.70;;;;;;;20.09;50.38;99304.44;7291911;19;130086;-41
2024/01/24 02:18:21;;;;;;;173.63;7.20;;;;;;;20.00;50.41;99312.25;7290906;19;130530;-36
2024/01/24 02:20:47;;;;;;;205.50;7.90;;;;;;;19.89;51.55;99301.94;7290366;19;129755;-38
2024/01/24 02:23:15;;;;;;;165.75;6.30;;;;;;;19.82;51.17;99303.41;7293013;19;132999;-39
2024/01/24 02:25:40;;;;;;;200.20;8.23;;;;;;;19.77;51.59;99276.91;7289548;19;130283;-37
2024/01/24 02:28:05;;;;;;;157.52;6.45;;;;;;;19.74;51.35;99270.22;7288192;19;131420;-38
2024/01/24 02:30:31;;;;;;;247.23;9.73;;;;;;;19.72;51.71;99253.06;7290208;19;129613;-40
2024/01/24 02:32:58;;;;;;;205.20;8.43;;;;;;;19.70;51.90;99247.94;7291684;19;130917;-41
2024/01/24 02:35:25;;;;;;;148.07;5.97;;;;;;;19.67;52.26;99239.59;7292861;19;129321;-37
2024/01/24 02:37:50;;;;;;;160.50;6.30;;;;;;;19.66;52.13;99240.53;7290051;19;130538;-39
2024/01/24 02:40:15;;;;;;;229.32;9.15;;;;;;;19.67;52.23;99258.66;7286991;19;129149;-40
2024/01/24 02:42:41;;;;;;;195.40;8.15;;;;;;;19.61;52.32;99234.91;7291195;19;131712;-38
2024/01/24 02:45:07;;;;;;;254.88;9.85;;;;;;;19.61;52.36;99221.88;7288948;19;130628;-37
2024/01/24 02:47:32;;;;;;;172.43;6.95;;;;;;;19.63;52.31;99199.94;7285218;19;130113;-40
2024/01/24 02:50:01;;;;;;;252.40;9.65;;;;;;;19.68;51.84;99202.13;7289643;19;129433;-38
2024/01/24 02:52:26;;;;;;;91.68;3.63;;;;;;;19.74;52.06;99217.22;7294890;19;130312;-38
2024/01/24 02:54:52;;;;;;;183.93;7.45;;;;;;;19.85;50.81;99224.91;7299932;19;131290;-40
2024/01/24 02:57:17;;;;;;;152.65;5.95;;;;;;;19.97;50.05;99198.53;7296128;19;130499;-35
2024/01/24 02:59:42;;;;;;;344.20;14.13;;;;;;;20.02;49.90;99185.06;7286341;19;131469;-35
2024/01/24 03:02:08;;;;;;;170.85;6.68;;;;;;;20.07;50.11;99199.34;7296572;19;129539;-37
2024/01/24 03:04:33;;;;;;;193.80;7.53;;;;;;;20.09;49.87;99183.56;7297332;19;130055;-39
2024/01/24 03:06:58;;;;;;;165.20;6.38;;;;;;;20.11;49.37;99168.59;7292991;19;130279;-39
2024/01/24 03:09:24;;;;;;;222.07;8.50;;;;;;;20.10;49.32;99167.75;7298081;19;131379;-40
2024/01/24 03:11:49;;;;;;;202.75;7.85;;;;;;;20.09;49.40;99147.84;7296661;19;131658;-40
2024/01/24 03:14:14;;;;;;;210.80;8.63;;;;;;;20.11;49.12;99160.75;7296898;19;131153;-44
2024/01/24 03:16:40;;;;;;;169.35;6.47;;;;;;;20.12;49.68;99134.53;7295974;19;131136;-39
2024/01/24 03:19:07;;;;;;;234.45;9.10;;;;;;;20.14;49.64;99148.25;7294462;19;129939;-39
2024/01/24 03:21:32;;;;;;;;;;;;;;;20.03;50.64;99139.78;7297516;19;129659;-45
2024/01/24 03:23:58;;;;;;;155.25;6.05;;;;;;;20.13;48.98;99145.78;7298386;19;129658;-40
2024/01/24 03:26:23;;;;;;;191.07;7.38;;;;;;;20.09;49.26;99126.16;7296704;19;131465;-42
2024/01/24 03:28:49;;;;;;;252.13;10.27;;;;;;;20.11;49.41;99111.19;7296147;19;130729;-41
2024/01/24 03:31:14;;;;;;;135.52;5.25;;;;;;;20.10;48.99;99114.72;7294397;19;130129;-44
2024/01/24 03:33:39;;;;;;;180.07;6.93;;;;;;;20.11;48.97;99119.00;7295807;19;129730;-41
2024/01/24 03:36:05;;;;;;;217.82;8.27;;;;;;;20.14;49.35;99100.44;7295190;19;129583;-40
2024/01/24 03:38:31;;;;;;;185.52;7.07;;;;;;;20.15;48.78;99102.94;7297466;19;132214;-37
2024/01/24 03:40:56;;;;;;;208.75;8.20;;;;;;;20.15;49.21;99112.56;7294141;19;129221;-39
2024/01/24 03:43:21;;;;;;;142.50;5.55;;;;;;;20.14;48.97;99110.88;7296822;19;129441;-37
2024/01/24 03:45:47;;;;;;;237.15;9.65;;;;;;;20.15;49.17;99102.13;7295889;19;132659;-37
2024/01/24 03:48:12;;;;;;;182.73;6.95;;;;;;;20.12;48.81;99112.81;7296694;19;131089;-37
2024/01/24 03:50:38;;;;;;;251.30;9.98;;;;;;;20.11;49.06;99126.84;7291512;19;132011;-40
2024/01/24 03:53:05;;;;;;;159.95;6.15;;;;;;;20.13;48.89;99104.84;7296029;19;130140;-37
2024/01/24 03:55:30;;;;;;;231.00;8.88;;;;;;;20.15;48.91;99136.88;7292597;19;130518;-40
2024/01/24 03:57:56;;;;;;;90.43;3.58;;;;;;;20.20;48.69;99132.06;7295418;19;129531;-38
2024/01/24 04:00:23;;;;;;;223.00;8.37;;;;;;;20.17;49.69;99126.28;7295095;19;129772;-38
2024/01/24 04:02:48;;;;;;;232.82;9.50;;;;;;;19.98;50.41;99113.28;7291115;19;130566;-42
2024/01/24 04:05:14;;;;;;;210.95;8.13;;;;;;;19.96;50.68;99102.16;7297734;19;133291;-40
2024/01/24 04:07:40;;;;;;;287.00;11.65;;;;;;;19.90;51.54;99113.16;7293356;19;130853;-42
2024/01/24 04:10:06;;;;;;;136.32;5.32;;;;;;;19.71;51.34;99087.09;7286796;19;131744;-39
2024/01/24 04:12:31;;;;;;;207.40;8.07;;;;;;;19.79;51.90;99095.88;7296641;19;130671;-42
2024/01/24 04:14:57;;;;;;;223.60;8.63;;;;;;;19.75;51.58;99084.06;7295181;19;130310;-41
2024/01/24 04:17:22;;;;;;;180.05;6.82;;;;;;;19.74;52.28;99078.97;7294967;19;130749;-39
2024/01/24 04:19:48;;;;;;;187.95;7.38;;;;;;;19.70;51.85;99048.94;7295679;19;130693;-39
2024/01/24 04:22:13;;;;;;;236.80;8.98;;;;;;;19.71;52.37;99066.22;7296064;19;130174;-38
2024/01/24 04:24:39;;;;;;;187.90;7.45;;;;;;;19.70;52.68;99064.59;7293580;19;130411;-38
2024/01/24 04:27:06;;;;;;;245.13;9.45;;;;;;;19.60;52.27;99059.41;7291282;19;131045;-38
2024/01/24 04:29:31;;;;;;;;;;;;;;;19.68;52.89;99050.88;7294908;19;129729;-38
2024/01/24 04:31:56;;;;;;;188.53;7.13;;;;;;;19.67;52.49;99054.44;7290970;19;129248;-38
2024/01/24 04:34:22;;;;;;;189.13;7.18;;;;;;;19.78;51.68;99067.31;7291238;19;130629;-38
2024/01/24 04:36:47;;;;;;;273.42;11.20;;;;;;;19.90;50.42;99063.59;7286209;19;129212;-38
2024/01/24 04:39:12;;;;;;;212.52;7.95;;;;;;;19.93;50.58;99081.56;7291268;19;130875;-39
2024/01/24 04:41:38;;;;;;;210.48;8.00;;;;;;;19.91;51.13;99075.66;7294786;19;131657;-37
2024/01/24 04:44:04;;;;;;;163.63;6.60;;;;;;;19.78;52.22;99078.59;7290617;19;129750;-39
2024/01/24 04:46:29;;;;;;;329.13;13.35;;;;;;;19.71;52.20;99107.94;7288336;19;133220;-39
2024/01/24 04:48:55;;;;;;;290.77;11.13;;;;;;;19.74;51.34;99077.22;7290608;19;130472;-38
2024/01/24 04:51:21;;;;;;;285.95;11.43;;;;;;;19.82;51.65;99060.84;7286437;19;132522;-38
2024/01/24 04:53:47;;;;;;;242.77;9.45;;;;;;;19.98;50.84;99058.47;7277661;19;131097;-38
2024/01/24 04:56:12;;;;;;;192.07;7.28;;;;;;;20.16;49.95;99072.47;7288223;19;129774;-38
2024/01/24 04:58:40;;;;;;;233.80;8.98;;;;;;;20.17;49.73;99058.44;7286493;19;132851;-38
2024/01/24 05:01:06;;;;;;;328.95;12.93;;;;;;;20.50;49.27;99081.38;7279595;19;132737;-38
2024/01/24 05:03:31;;;;;;;189.90;7.53;;;;;;;21.37;47.36;99072.03;7288429;19;131768;-38
2024/01/24 05:05:57;;;;;;;251.45;10.02;;;;;;;22.32;44.94;99038.78;7290655;19;130861;-38
2024/01/24 05:08:22;;;;;;;171.10;6.55;;;;;;;22.66;44.30;99052.69;7285588;19;130436;-38
2024/01/24 05:10:48;;;;;;;268.23;10.65;;;;;;;22.82;43.84;99050.13;7284930;19;130271;-38
2024/01/24 05:13:13;;;;;;;301.08;11.57;;;;;;;22.90;43.46;99034.41;7279060;19;130462;-38
2024/01/24 05:15:38;;;;;;;229.02;8.65;;;;;;;22.68;44.37;99016.66;7294839;19;130076;-38
2024/01/24 05:18:04;;;;;;;401.63;17.35;;;;;;;22.67;44.48;99026.34;7287524;19;130462;-38
2024/01/24 05:20:29;;;;;;;159.55;6.18;;;;;;;22.53;44.80;99016.47;7288525;19;130572;-38
2024/01/24 05:22:54;;;;;;;283.02;11.18;;;;;;;22.53;44.69;99047.06;7288849;19;130318;-38
2024/01/24 05:25:20;;;;;;;177.90;7.05;;;;;;;22.36;44.74;99037.50;7291613;19;129355;-38
2024/01/24 05:27:46;;;;;;;219.27;8.48;;;;;;;22.23;45.17;99029.25;7285729;19;131133;-38
2024/01/24 05:30:12;;;;;;;189.52;7.40;;;;;;;22.07;45.66;99031.78;7289933;19;131090;-38
2024/01/24 05:32:37;;;;;;;235.55;9.13;;;;;;;21.63;46.91;99031.03;7292283;19;131676;-38
2024/01/24 05:35:03;;;;;;;194.93;7.68;;;;;;;21.00;47.29;99003.41;7292974;19;130853;-39
2024/01/24 05:37:28;;;;;;;218.60;8.48;;;;;;;20.85;48.08;99031.81;7288637;19;129587;-38
2024/01/24 05:39:54;;;;;;;173.65;7.10;;;;;;;20.54;49.13;99005.19;7288837;19;130674;-38
2024/01/24 05:42:19;;;;;;;190.88;7.43;;;;;;;20.55;49.02;99037.38;7292798;19;129835;-37
2024/01/24 05:44:44;;;;;;;217.57;8.82;;;;;;;20.47;49.34;99026.84;7294165;19;130884;-38
2024/01/24 05:47:10;;;;;;;230.30;9.15;;;;;;;20.41;49.85;99040.47;7288322;19;131268;-38
2024/01/24 05:49:36;;;;;;;231.60;9.10;;;;;;;20.17;49.88;99001.84;7290366;19;132398;-38
2024/01/24 05:52:04;;;;;;;186.87;7.07;;;;;;;20.28;50.12;99032.97;7288883;19;130767;-37
2024/01/24 05:54:29;;;;;;;171.05;6.82;;;;;;;20.21;50.16;99018.84;7290997;19;130021;-38
2024/01/24 05:56:55;;;;;;;284.67;11.82;;;;;;;20.14;50.47;99012.56;7286756;19;130168;-37
2024/01/24 05:59:20;;;;;;;160.75;6.20;;;;;;;19.97;50.80;98978.56;7287034;19;130113;-38
2024/01/24 06:01:47;;;;;;;211.07;8.32;;;;;;;20.11;50.46;98998.97;7291046;19;131963;-37
2024/01/24 06:04:12;;;;;;;330.88;13.80;;;;;;;20.08;51.03;99017.53;7285296;19;130604;-39
2024/01/24 06:06:38;;;;;;;343.27;14.32;;;;;;;20.19;50.35;98999.91;7283104;19;131693;-39
2024/01/24 06:09:03;;;;;;;270.05;10.32;;;;;;;20.18;50.62;98987.03;7285390;19;129428;-38
2024/01/24 06:11:29;;;;;;;193.95;7.78;;;;;;;20.17;50.64;99006.25;7288975;19;131770;-37
2024/01/24 06:13:54;;;;;;;187.13;7.47;;;;;;;20.18;50.60;99002.69;7285712;19;130337;-39
2024/01/24 06:16:19;;;;;;;264.80;10.38;;;;;;;20.10;50.92;99013.78;7283640;19;131482;-38
2024/01/24 06:18:45;;;;;;;274.77;10.75;;;;;;;20.03;51.52;98983.22;7273019;19;131333;-37
2024/01/24 06:21:10;;;;;;;177.40;6.88;;;;;;;19.87;51.61;98985.59;7285851;19;133285;-38
2024/01/24 06:23:35;;;;;;;190.95;7.82;;;;;;;19.98;51.80;99009.72;7289972;19;132501;-38
2024/01/24 06:26:02;;;;;;;239.35;9.43;;;;;;;19.94;51.96;99010.16;7286615;19;130186;-37
2024/01/24 06:28:27;;;;;;;220.53;8.73;;;;;;;19.91;51.66;99013.88;7288914;19;131096;-37
2024/01/24 06:30:52;;;;;;;211.68;8.38;;;;;;;19.87;51.87;98998.63;7286137;19;130328;-37
2024/01/24 06:33:18;;;;;;;135.15;5.47;;;;;;;19.83;51.86;99002.50;7289907;19;129334;-37
2024/01/24 06:35:43;;;;;;;245.32;9.85;;;;;;;19.69;52.61;98958.63;7291269;19;129474;-37
2024/01/24 06:38:09;;;;;;;129.77;5.00;;;;;;;19.90;52.15;98980.13;7291642;19;129792;-38
2024/01/24 06:40:34;;;;;;;206.57;8.18;;;;;;;19.95;51.63;98991.75;7290188;19;129936;-38
2024/01/24 06:42:59;;;;;;;210.90;8.27;;;;;;;19.95;51.34;98972.69;7289182;19;129689;-37
2024/01/24 06:45:25;;;;;;;225.43;8.80;;;;;;;19.79;52.02;98949.81;7292150;19;132501;-37
2024/01/24 06:47:50;;;;;;;209.57;8.30;;;;;;;19.85;51.75;98964.88;7289464;19;132433;-38
2024/01/24 06:50:17;;;;;;;183.60;7.32;;;;;;;19.77;51.59;98943.06;7290411;19;130351;-38
2024/01/24 06:52:42;;;;;;;113.10;4.68;;;;;;;19.93;51.51;98982.44;7289326;19;129431;-37
2024/01/24 06:55:08;;;;;;;225.35;8.70;;;;;;;19.93;50.94;98969.38;7292348;19;132337;-37
2024/01/24 06:57:34;;;;;;;179.50;7.03;;;;;;;19.95;51.27;98970.88;7292487;19;130144;-37
2024/01/24 07:00:00;;;;;;;208.77;8.32;;;;;;;19.99;50.83;98971.41;7289798;19;130329;-38
2024/01/24 07:02:26;;;;;;;129.88;5.00;;;;;;;20.01;50.24;98975.53;7289544;19;130407;-38
2024/01/24 07:04:51;;;;;;;236.83;9.50;;;;;;;20.05;51.23;98970.81;7290122;19;129642;-37
2024/01/24 07:07:17;;;;;;;189.05;7.55;;;;;;;20.08;50.91;98955.69;7291210;19;130679;-38
2024/01/24 07:09:42;;;;;;;185.70;7.25;;;;;;;20.11;50.16;98960.66;7290596;19;132239;-39
2024/01/24 07:12:08;;;;;;;185.00;7.15;;;;;;;20.12;50.45;98956.22;7290952;19;131062;-37
2024/01/24 07:14:34;;;;;;;209.10;7.70;;;;;;;20.32;49.72;98969.06;7289005;19;129061;-37
2024/01/24 07:17:00;;;;;;;170.55;6.65;;;;;;;20.86;48.93;98968.13;7289917;19;130206;-38
2024/01/24 07:19:25;;;;;;;193.90;7.57;;;;;;;21.09;48.51;98966.72;7288761;19;130408;-37
2024/01/24 07:21:50;;;;;;;173.23;6.80;;;;;;;21.19;47.86;98971.88;7289833;19;129090;-37
2024/01/24 07:24:16;;;;;;;203.32;7.78;;;;;;;21.10;48.65;98944.84;7290080;19;129603;-37
2024/01/24 07:26:41;;;;;;;200.52;7.88;;;;;;;21.07;48.59;98947.78;7290274;19;130183;-38
2024/01/24 07:29:06;;;;;;;194.07;7.70;;;;;;;21.05;48.55;98972.41;7288127;19;131042;-38
2024/01/24 07:31:32;;;;;;;174.05;6.72;;;;;;;20.94;48.67;98955.13;7289590;19;130321;-38
2024/01/24 07:33:57;;;;;;;240.60;9.48;;;;;;;20.86;49.18;98978.56;7289886;19;130322;-38
2024/01/24 07:36:23;;;;;;;150.50;5.80;;;;;;;20.75;49.35;98955.31;7291786;19;134957;-38
2024/01/24 07:38:49;;;;;;;187.90;7.25;;;;;;;20.70;50.04;98958.38;7296492;19;130219;-37
2024/01/24 07:41:14;;;;;;;280.88;10.75;;;;;;;20.63;50.19;98951.25;7293581;19;129428;-39
2024/01/24 07:43:41;;;;;;;161.47;6.27;;;;;;;20.54;49.92;98955.56;7298050;19;129120;-37
2024/01/24 07:46:06;;;;;;;260.67;10.73;;;;;;;20.33;50.39;98935.94;7293977;19;130195;-37
2024/01/24 07:48:31;;;;;;;201.50;8.23;;;;;;;20.08;50.70;98965.34;7293900;19;131313;-39
2024/01/24 07:50:57;;;;;;;307.95;12.25;;;;;;;20.13;51.16;98942.25;7294495;19;132107;-38
2024/01/24 07:53:23;;;;;;;175.68;6.93;;;;;;;20.07;51.51;98961.06;7298126;19;129191;-37
2024/01/24 07:55:49;;;;;;;170.80;6.53;;;;;;;20.04;51.15;98937.88;7296885;19;130412;-38
2024/01/24 07:58:14;;;;;;;288.58;11.93;;;;;;;20.01;51.14;98944.22;7293824;19;130374;-39
2024/01/24 08:00:40;;;;;;;265.80;10.35;;;;;;;20.00;50.88;98973.06;7294764;19;129122;-38
2024/01/24 08:03:05;;;;;;;229.77;9.37;;;;;;;20.02;51.06;98960.69;7296145;19;132217;-38
2024/01/24 08:05:32;;;;;;;151.45;5.88;;;;;;;20.00;51.19;98946.97;7294525;19;129769;-37
2024/01/24 08:07:57;;;;;;;206.70;8.18;;;;;;;19.97;51.77;98952.47;7292896;19;130587;-38
2024/01/24 08:10:23;;;;;;;177.30;6.80;;;;;;;19.98;51.10;98946.28;7295852;19;131233;-38
2024/01/24 08:12:49;;;;;;;158.87;6.37;;;;;;;19.99;51.12;98958.38;7296797;19;128947;-38
2024/01/24 08:15:15;;;;;;;156.90;5.85;;;;;;;20.01;51.24;98953.81;7295657;19;130986;-35
2024/01/24 08:17:40;;;;;;;121.13;4.83;;;;;;;20.01;51.43;98979.91;7292683;19;134033;-39
2024/01/24 08:20:09;;;;;;;237.32;9.38;;;;;;;20.01;51.65;98965.09;7292980;19;129502;-39
2024/01/24 08:22:34;;;;;;;161.25;6.65;;;;;;;20.04;50.92;98970.03;7295380;19;129374;-39
2024/01/24 08:25:00;;;;;;;215.23;8.63;;;;;;;20.11;51.10;98975.47;7293237;19;133411;-38
2024/01/24 08:27:26;;;;;;;191.38;7.53;;;;;;;20.11;51.66;98983.31;7291962;19;131235;-38
2024/01/24 08:29:52;;;;;;;204.48;7.97;;;;;;;20.11;51.44;98991.13;7292340;19;131964;-38
2024/01/24 08:32:17;;;;;;;212.40;8.17;;;;;;;20.09;51.35;98993.06;7290743;19;129390;-38
2024/01/24 08:34:43;;;;;;;202.40;8.02;;;;;;;20.10;50.92;98997.31;7289853;19;131113;-39
2024/01/24 08:37:09;;;;;;;242.87;9.47;;;;;;;20.08;51.41;99007.09;7290255;19;131241;-39
2024/01/24 08:39:34;;;;;;;187.07;7.47;;;;;;;20.07;51.48;98987.16;7293445;19;129516;-37
2024/01/24 08:42:00;;;;;;;219.57;8.43;;;;;;;20.16;51.25;99002.00;7294897;19;129191;-38
2024/01/24 08:44:25;;;;;;;167.55;6.63;;;;;;;20.13;51.78;98990.00;7295524;19;131287;-38
2024/01/24 08:46:51;;;;;;;274.40;11.02;;;;;;;20.01;51.10;98991.19;7292832;19;130266;-37
2024/01/24 08:49:17;;;;;;;189.52;7.50;;;;;;;20.00;50.91;99012.22;7290399;19;129850;-37
2024/01/24 08:51:42;;;;;;;167.18;6.68;;;;;;;19.88;51.54;99026.38;7295329;19;130383;-38
2024/01/24 08:54:08;;;;;;;188.50;7.40;;;;;;;19.96;51.51;99026.50;7293482;19;130058;-38
2024/01/24 08:56:34;;;;;;;288.58;11.30;;;;;;;19.83;51.57;99031.22;7295777;19;131001;-37
2024/01/24 08:58:59;;;;;;;158.43;6.45;;;;;;;19.92;51.71;99030.34;7294750;19;129302;-38
2024/01/24 09:01:25;;;;;;;200.88;7.97;;;;;;;19.81;51.38;99009.66;7293052;19;131577;-39
2024/01/24 09:03:50;;;;;;;190.77;7.82;;;;;;;19.92;52.12;99007.69;7294091;19;131015;-39
2024/01/24 09:06:16;;;;;;;222.32;8.70;;;;;;;19.91;51.83;99021.72;7294539;19;130247;-38
2024/01/24 09:08:43;;;;;;;161.10;6.40;;;;;;;19.89;51.79;99012.38;7286962;19;129014;-37
2024/01/24 09:11:08;;;;;;;221.05;8.70;;;;;;;19.90;51.71;99014.03;7288376;19;130735;-39
2024/01/24 09:13:34;;;;;;;214.48;8.23;;;;;;;19.88;52.34;99013.34;7294538;19;129811;-38
2024/01/24 09:15:59;;;;;;;145.45;5.85;;;;;;;19.87;52.63;99014.28;7290363;19;131827;-37
2024/01/24 09:18:24;;;;;;;178.43;6.90;;;;;;;19.87;52.11;99014.28;7294241;19;129411;-38
2024/01/24 09:20:49;;;;;;;200.52;7.88;;;;;;;19.83;52.37;98990.31;7291964;19;129267;-37
2024/01/24 09:23:15;;;;;;;260.05;10.05;;;;;;;19.94;51.71;99010.16;7286269;19;131732;-38
2024/01/24 09:25:40;;;;;;;206.82;8.20;;;;;;;19.96;51.53;98997.78;7291305;19;132311;-37
2024/01/24 09:28:08;;;;;;;216.98;8.38;;;;;;;20.01;51.87;99013.84;7292804;19;132820;-37
2024/01/24 09:30:34;;;;;;;171.07;6.88;;;;;;;19.98;51.98;99008.91;7292470;19;129145;-37
2024/01/24 09:32:59;;;;;;;263.87;10.13;;;;;;;19.81;51.89;98988.78;7293342;19;130273;-38
2024/01/24 09:35:25;;;;;;;127.65;5.20;;;;;;;19.92;51.75;99017.28;7291789;19;130453;-37
2024/01/24 09:37:50;;;;;;;181.23;7.25;;;;;;;19.92;51.98;99014.69;7294654;19;131614;-38
2024/01/24 09:40:16;;;;;;;176.85;7.07;;;;;;;19.90;51.89;99001.78;7292060;19;129220;-38
2024/01/24 09:42:43;;;;;;;225.32;8.85;;;;;;;19.90;52.10;99014.03;7293534;19;130788;-38
2024/01/24 09:45:09;;;;;;;242.82;10.02;;;;;;;19.90;51.98;98995.78;7293511;19;132520;-37
2024/01/24 09:47:35;;;;;;;180.50;7.00;;;;;;;19.78;51.67;98973.44;7292347;19;132093;-38
2024/01/24 09:50:04;;;;;;;154.00;5.97;;;;;;;19.91;52.24;98984.34;7291361;19;129277;-39
2024/01/24 09:52:32;;;;;;;193.65;7.32;;;;;;;19.91;52.04;98976.53;7292763;19;131124;-39
2024/01/24 09:55:00;;;;;;;200.60;7.88;;;;;;;19.94;51.43;98989.28;7292401;19;132679;-37
2024/01/24 09:57:26;;;;;;;183.98;7.32;;;;;;;19.92;51.31;99004.25;7292897;19;129202;-39
2024/01/24 09:59:52;;;;;;;173.02;6.78;;;;;;;19.94;51.86;99005.75;7288211;19;133576;-37
2024/01/24 10:02:18;;;;;;;234.27;9.18;;;;;;;19.93;51.31;99018.94;7291943;19;131069;-38
2024/01/24 10:04:44;;;;;;;198.65;7.95;;;;;;;19.94;51.28;99020.59;7292629;19;132898;-39
2024/01/24 10:07:10;;;;;;;138.27;5.47;;;;;;;19.93;51.30;99011.13;7292441;19;129638;-38
2024/01/24 10:09:35;;;;;;;175.17;7.23;;;;;;;19.93;51.39;99004.09;7290574;19;131223;-37
2024/01/24 10:12:01;;;;;;;290.20;11.52;;;;;;;19.93;51.74;99003.31;7291676;19;130192;-37
2024/01/24 10:14:27;;;;;;;215.07;8.30;;;;;;;19.98;51.39;98998.47;7292399;19;129990;-40
2024/01/24 10:16:53;;;;;;;105.15;4.18;;;;;;;19.97;51.05;99010.69;7291107;19;129020;-37
2024/01/24 10:19:24;;;;;;;177.95;6.82;;;;;;;20.03;51.05;99035.41;7293626;19;130981;-37
2024/01/24 10:21:49;;;;;;;241.57;9.60;;;;;;;20.03;51.35;99040.63;7292110;19;130414;-38
2024/01/24 10:24:15;;;;;;;204.52;8.38;;;;;;;20.00;51.22;99036.50;7286985;19;129779;-37
2024/01/24 10:26:40;;;;;;;196.90;8.23;;;;;;;20.01;51.03;99032.94;7287282;19;129457;-37
2024/01/24 10:29:07;;;;;;;206.38;8.25;;;;;;;19.96;51.49;99029.09;7284821;19;129689;-37
2024/01/24 10:31:32;;;;;;;;;;;;;;;19.86;51.86;99007.44;7286780;19;130374;-37
2024/01/24 10:33:58;;;;;;;145.57;5.75;;;;;;;19.98;51.34;99027.19;7287793;19;129786;-39
2024/01/24 10:36:24;;;;;;;206.65;7.90;;;;;;;19.98;51.13;99011.53;7284866;19;131062;-38
2024/01/24 10:38:54;;;;;;;238.18;9.30;;;;;;;19.94;52.03;99064.94;7288083;19;129680;-37
2024/01/24 10:41:21;;;;;;;262.17;10.23;;;;;;;19.93;51.85;99076.34;7286088;19;131554;-38
2024/01/24 10:43:50;;;;;;;201.63;7.82;;;;;;;19.89;51.58;99094.06;7291886;19;130245;-38
2024/01/24 10:46:15;;;;;;;150.32;6.10;;;;;;;19.87;52.39;99088.16;7287509;19;130671;-38
2024/01/24 10:48:41;;;;;;;155.05;6.13;;;;;;;19.87;52.14;99118.63;7289657;19;132413;-38
2024/01/24 10:51:07;;;;;;;259.92;10.38;;;;;;;19.84;52.09;99113.69;7289379;19;130997;-36
2024/01/24 10:53:34;;;;;;;109.97;4.27;;;;;;;19.89;52.39;99111.50;7293177;19;132202;-39
2024/01/24 10:56:01;;;;;;;;;;;;;;;19.92;52.82;99119.03;7291882;19;129760;-39
2024/01/24 10:58:28;;;;;;;150.32;6.00;;;;;;;19.90;52.03;99107.94;7289734;19;130015;-38
2024/01/24 11:00:54;;;;;;;223.48;8.68;;;;;;;19.91;51.63;99105.19;7290260;19;130120;-38
2024/01/24 11:03:19;;;;;;;99.32;3.97;;;;;;;19.89;52.08;99106.28;7290692;19;131244;-36